createdAt,value
2023-12-30T00:00:18.761Z,10.80
2023-12-30T00:03:08.640Z,10.76
2023-12-30T00:05:37.247Z,10.76
2023-12-30T00:08:06.115Z,10.70
2023-12-30T00:10:34.769Z,10.69
2023-12-30T00:13:04.500Z,10.72
2023-12-30T00:15:33.469Z,10.75
2023-12-30T00:18:02.025Z,10.77
2023-12-30T00:20:30.745Z,10.79
2023-12-30T00:22:59.339Z,10.80
2023-12-30T00:25:28.370Z,10.82
2023-12-30T00:27:57.523Z,10.87
2023-12-30T00:30:25.934Z,10.92
2023-12-30T00:32:54.784Z,10.89
2023-12-30T00:35:24.117Z,10.85
2023-12-30T00:37:54.615Z,10.79
2023-12-30T00:40:26.895Z,10.76
2023-12-30T00:42:56.350Z,10.75
2023-12-30T00:45:24.782Z,10.74
2023-12-30T00:47:53.657Z,10.73
2023-12-30T00:50:22.164Z,10.66
2023-12-30T00:52:50.698Z,10.60
2023-12-30T00:55:19.458Z,10.61
2023-12-30T00:57:47.923Z,10.66
2023-12-30T01:00:16.680Z,10.73
2023-12-30T01:02:45.060Z,10.81
2023-12-30T01:05:13.570Z,10.86
2023-12-30T01:07:42.254Z,10.86
2023-12-30T01:10:10.922Z,10.85
2023-12-30T01:12:39.418Z,10.82
2023-12-30T01:15:08.790Z,10.79
2023-12-30T01:17:37.317Z,10.76
2023-12-30T01:20:08.372Z,10.73
2023-12-30T01:22:38.252Z,10.70
2023-12-30T01:25:07.717Z,10.69
2023-12-30T01:27:36.461Z,10.68
2023-12-30T01:30:05.634Z,10.68
2023-12-30T01:32:34.253Z,10.67
2023-12-30T01:35:02.544Z,10.65
2023-12-30T01:37:31.417Z,10.57
2023-12-30T01:39:59.930Z,10.51
2023-12-30T01:42:28.680Z,10.53
2023-12-30T01:44:57.402Z,10.56
2023-12-30T01:47:26.272Z,10.57
2023-12-30T01:49:54.984Z,10.54
2023-12-30T01:52:24.110Z,10.56
2023-12-30T01:54:53.148Z,10.62
2023-12-30T01:57:22.422Z,10.69
2023-12-30T01:59:52.524Z,10.69
2023-12-30T02:02:22.896Z,10.68
2023-12-30T02:04:51.697Z,10.68
2023-12-30T02:07:20.271Z,10.67
2023-12-30T02:09:48.851Z,10.65
2023-12-30T02:12:17.702Z,10.64
2023-12-30T02:14:46.452Z,10.64
2023-12-30T02:17:14.878Z,10.67
2023-12-30T02:19:43.515Z,10.68
2023-12-30T02:22:12.452Z,10.69
2023-12-30T02:24:40.966Z,10.62
2023-12-30T02:27:10.936Z,10.58
2023-12-30T02:29:39.386Z,10.54
2023-12-30T02:32:07.883Z,10.50
2023-12-30T02:34:36.829Z,10.44
2023-12-30T02:37:05.687Z,10.41
2023-12-30T02:39:34.193Z,10.41
2023-12-30T02:42:02.783Z,10.43
2023-12-30T02:44:31.416Z,10.47
2023-12-30T02:47:00.181Z,10.48
2023-12-30T02:49:29.359Z,10.48
2023-12-30T02:51:58.956Z,10.49
2023-12-30T02:54:28.868Z,10.49
2023-12-30T02:56:58.192Z,10.47
2023-12-30T02:59:26.639Z,10.48
2023-12-30T03:01:55.413Z,10.51
2023-12-30T03:04:24.417Z,10.53
2023-12-30T03:06:52.972Z,10.52
2023-12-30T03:09:21.420Z,10.48
2023-12-30T03:11:50.290Z,10.40
2023-12-30T03:14:18.869Z,10.37
2023-12-30T03:16:47.355Z,10.37
2023-12-30T03:19:16.249Z,10.39
2023-12-30T03:21:46.481Z,10.41
2023-12-30T03:24:15.473Z,10.44
2023-12-30T03:26:43.906Z,10.50
2023-12-30T03:29:12.807Z,10.55
2023-12-30T03:31:43.015Z,10.59
2023-12-30T03:34:12.610Z,10.61
2023-12-30T03:36:41.074Z,10.62
2023-12-30T03:39:09.616Z,10.61
2023-12-30T03:41:38.038Z,10.56
2023-12-30T03:44:06.518Z,10.48
2023-12-30T03:46:34.923Z,10.47
2023-12-30T03:49:03.538Z,10.45
2023-12-30T03:51:32.431Z,10.48
2023-12-30T03:54:01.386Z,10.52
2023-12-30T03:56:30.079Z,10.54
2023-12-30T03:59:01.030Z,10.56
2023-12-30T04:01:29.794Z,10.55
2023-12-30T04:03:58.533Z,10.55
2023-12-30T04:06:27.110Z,10.55
2023-12-30T04:08:55.755Z,10.54
2023-12-30T04:11:24.606Z,10.54
2023-12-30T04:13:53.077Z,10.57
2023-12-30T04:16:22.073Z,10.61
2023-12-30T04:18:50.708Z,10.69
2023-12-30T04:21:19.210Z,10.72
2023-12-30T04:23:47.564Z,10.74
2023-12-30T04:26:16.287Z,10.74
2023-12-30T04:28:46.704Z,10.76
2023-12-30T04:31:15.487Z,10.73
2023-12-30T04:33:44.113Z,10.68
2023-12-30T04:36:13.328Z,10.59
2023-12-30T04:38:43.567Z,10.56
2023-12-30T04:41:13.998Z,10.52
2023-12-30T04:43:42.435Z,10.52
2023-12-30T04:46:13.420Z,10.52
2023-12-30T04:48:42.045Z,10.49
2023-12-30T04:51:11.466Z,10.46
2023-12-30T04:53:39.889Z,10.42
2023-12-30T04:56:09.870Z,10.40
2023-12-30T04:58:38.391Z,10.40
2023-12-30T05:01:07.115Z,10.39
2023-12-30T05:03:37.057Z,10.37
2023-12-30T05:06:05.601Z,10.34
2023-12-30T05:08:34.495Z,10.33
2023-12-30T05:11:07.831Z,10.33
2023-12-30T05:13:36.289Z,10.33
2023-12-30T05:16:06.041Z,10.32
2023-12-30T05:18:34.886Z,10.30
2023-12-30T05:21:03.946Z,10.30
2023-12-30T05:23:35.633Z,10.27
2023-12-30T05:26:04.856Z,10.24
2023-12-30T05:28:33.731Z,10.21
2023-12-30T05:31:03.521Z,10.20
2023-12-30T05:33:32.353Z,10.18
2023-12-30T05:36:01.229Z,10.14
2023-12-30T05:38:29.617Z,10.13
2023-12-30T05:40:58.197Z,10.13
2023-12-30T05:43:27.349Z,10.13
2023-12-30T05:45:56.347Z,10.13
2023-12-30T05:48:25.694Z,10.11
2023-12-30T05:50:54.478Z,10.12
2023-12-30T05:53:23.380Z,10.09
2023-12-30T05:55:54.147Z,10.06
2023-12-30T05:58:23.268Z,9.99
2023-12-30T06:00:52.113Z,9.95
2023-12-30T06:03:21.357Z,9.91
2023-12-30T06:05:50.107Z,9.87
2023-12-30T06:08:19.189Z,9.85
2023-12-30T06:10:52.738Z,9.85
2023-12-30T06:13:21.923Z,9.84
2023-12-30T06:15:52.368Z,9.83
2023-12-30T06:18:21.042Z,9.81
2023-12-30T06:20:49.405Z,9.75
2023-12-30T06:23:18.014Z,9.75
2023-12-30T06:25:46.514Z,9.76
2023-12-30T06:28:15.895Z,9.75
2023-12-30T06:30:44.938Z,9.72
2023-12-30T06:33:14.279Z,9.70
2023-12-30T06:35:42.829Z,9.67
2023-12-30T06:38:11.317Z,9.65
2023-12-30T06:40:40.345Z,9.62
2023-12-30T06:43:12.439Z,9.62
2023-12-30T06:45:41.054Z,9.62
2023-12-30T06:48:09.873Z,9.65
2023-12-30T06:50:38.366Z,9.65
2023-12-30T06:53:07.133Z,9.69
2023-12-30T06:55:41.940Z,9.72
2023-12-30T06:58:16.081Z,9.79
2023-12-30T07:00:44.615Z,9.90
2023-12-30T07:03:13.156Z,10.01
2023-12-30T07:05:42.211Z,10.13
2023-12-30T07:08:10.727Z,10.26
2023-12-30T07:10:41.731Z,10.38
2023-12-30T07:13:11.134Z,10.46
2023-12-30T07:15:40.157Z,10.52
2023-12-30T07:18:08.879Z,10.57
2023-12-30T07:20:37.500Z,10.61
2023-12-30T07:23:07.178Z,10.65
2023-12-30T07:25:35.635Z,10.69
2023-12-30T07:28:04.860Z,10.68
2023-12-30T07:30:33.380Z,10.65
2023-12-30T07:33:04.491Z,10.51
2023-12-30T07:35:33.180Z,10.51
2023-12-30T07:38:01.849Z,10.60
2023-12-30T07:40:30.588Z,10.61
2023-12-30T07:42:59.757Z,10.63
2023-12-30T07:45:28.472Z,10.70
2023-12-30T07:47:57.192Z,10.79
2023-12-30T07:50:25.857Z,10.92
2023-12-30T07:52:54.642Z,11.00
2023-12-30T07:55:23.466Z,11.00
2023-12-30T07:57:52.149Z,10.94
2023-12-30T08:00:20.917Z,10.91
2023-12-30T08:02:49.536Z,10.94
2023-12-30T08:05:19.618Z,10.97
2023-12-30T08:07:48.176Z,10.97
2023-12-30T08:10:16.956Z,11.05
2023-12-30T08:12:45.584Z,11.21
2023-12-30T08:15:14.327Z,11.30
2023-12-30T08:17:43.002Z,11.32
2023-12-30T08:20:11.940Z,11.37
2023-12-30T08:22:40.894Z,11.55
2023-12-30T08:25:12.865Z,11.80
2023-12-30T08:27:41.506Z,12.05
2023-12-30T08:30:10.418Z,12.21
2023-12-30T08:32:39.046Z,12.34
2023-12-30T08:35:09.181Z,12.38
2023-12-30T08:37:37.947Z,12.39
2023-12-30T08:40:08.089Z,12.39
2023-12-30T08:42:37.382Z,12.36
2023-12-30T08:45:07.280Z,12.31
2023-12-30T08:47:36.306Z,12.30
2023-12-30T08:50:05.530Z,12.40
2023-12-30T08:52:34.107Z,12.54
2023-12-30T08:55:03.053Z,12.75
2023-12-30T08:57:32.100Z,13.00
2023-12-30T09:00:00.696Z,13.30
2023-12-30T09:02:29.634Z,13.62
2023-12-30T09:04:58.813Z,14.07
2023-12-30T09:07:27.531Z,14.57
2023-12-30T09:09:56.477Z,14.99
2023-12-30T09:12:25.539Z,15.50
2023-12-30T09:14:54.376Z,16.10
2023-12-30T09:17:23.055Z,17.23
2023-12-30T09:19:51.794Z,18.21
2023-12-30T09:22:20.965Z,19.13
2023-12-30T09:24:50.463Z,19.69
2023-12-30T09:27:19.420Z,19.96
2023-12-30T09:29:47.994Z,19.88
2023-12-30T09:32:17.126Z,19.93
2023-12-30T09:34:45.687Z,20.14
2023-12-30T09:37:16.402Z,20.90
2023-12-30T09:39:45.545Z,22.65
2023-12-30T09:42:14.330Z,23.42
2023-12-30T09:44:43.117Z,23.37
2023-12-30T09:47:12.705Z,23.51
2023-12-30T09:49:42.349Z,24.76
2023-12-30T09:52:10.995Z,25.39
2023-12-30T09:54:48.309Z,25.04
2023-12-30T09:57:18.392Z,25.68
2023-12-30T09:59:51.005Z,28.11
2023-12-30T10:02:19.659Z,29.81
2023-12-30T10:04:51.146Z,31.07
2023-12-30T10:07:20.640Z,32.21
2023-12-30T10:09:51.885Z,33.26
2023-12-30T10:12:20.526Z,34.49
2023-12-30T10:14:49.217Z,34.56
2023-12-30T10:17:19.641Z,35.20
2023-12-30T10:19:48.802Z,35.78
2023-12-30T10:22:17.886Z,35.09
2023-12-30T10:24:46.497Z,34.09
2023-12-30T10:27:16.263Z,32.95
2023-12-30T10:29:51.156Z,30.99
2023-12-30T10:32:23.752Z,29.22
2023-12-30T10:34:52.566Z,27.63
2023-12-30T10:37:24.690Z,26.37
2023-12-30T10:39:55.479Z,25.27
2023-12-30T10:42:24.326Z,24.30
2023-12-30T10:44:53.191Z,23.31
2023-12-30T10:47:23.810Z,22.38
2023-12-30T10:49:56.003Z,21.65
2023-12-30T10:52:28.318Z,21.19
2023-12-30T10:55:10.385Z,20.76
2023-12-30T10:57:46.187Z,20.26
2023-12-30T11:00:17.696Z,20.00
2023-12-30T11:02:48.441Z,19.68
2023-12-30T11:05:49.269Z,19.53
2023-12-30T11:08:19.973Z,19.34
2023-12-30T11:10:48.699Z,19.53
2023-12-30T11:13:19.856Z,19.69
2023-12-30T11:15:48.462Z,19.78
2023-12-30T11:18:53.103Z,19.84
2023-12-30T11:21:45.125Z,19.61
2023-12-30T11:24:19.994Z,19.39
2023-12-30T11:26:49.371Z,19.28
2023-12-30T11:29:19.834Z,19.19
2023-12-30T11:31:50.001Z,19.05
2023-12-30T11:34:19.825Z,18.96
2023-12-30T11:36:49.110Z,18.85
2023-12-30T11:39:41.865Z,18.72
2023-12-30T11:42:11.314Z,18.58
2023-12-30T11:44:40.877Z,18.49
2023-12-30T11:47:09.547Z,18.31
2023-12-30T11:49:38.710Z,18.17
2023-12-30T11:52:09.540Z,18.19
2023-12-30T11:54:40.122Z,18.29
2023-12-30T11:57:10.854Z,18.31
2023-12-30T11:59:39.650Z,18.34
2023-12-30T12:02:15.900Z,18.34
2023-12-30T12:04:44.911Z,18.30
2023-12-30T12:07:14.533Z,18.27
2023-12-30T12:09:44.683Z,18.14
2023-12-30T12:12:13.819Z,18.09
2023-12-30T12:14:54.274Z,18.23
2023-12-30T12:17:24.529Z,18.19
2023-12-30T12:19:53.678Z,18.06
2023-12-30T12:22:22.934Z,17.95
2023-12-30T12:24:53.034Z,17.76
2023-12-30T12:27:23.555Z,17.55
2023-12-30T12:29:54.505Z,17.37
2023-12-30T12:32:26.039Z,17.32
2023-12-30T12:34:55.820Z,17.29
2023-12-30T12:37:26.263Z,17.25
2023-12-30T12:39:56.767Z,17.28
2023-12-30T12:42:30.892Z,17.28
2023-12-30T12:45:04.881Z,17.22
2023-12-30T12:47:35.171Z,17.19
2023-12-30T12:50:05.930Z,17.12
2023-12-30T12:52:35.118Z,17.03
2023-12-30T12:55:04.865Z,17.01
2023-12-30T12:57:34.925Z,17.00
2023-12-30T13:00:10.777Z,16.93
2023-12-30T13:02:42.374Z,16.84
2023-12-30T13:05:11.546Z,16.74
2023-12-30T13:07:43.590Z,16.69
2023-12-30T13:10:34.258Z,16.63
2023-12-30T13:13:08.388Z,16.61
2023-12-30T13:15:40.333Z,16.64
2023-12-30T13:18:14.929Z,16.67
2023-12-30T13:20:46.885Z,16.69
2023-12-30T13:23:17.611Z,16.71
2023-12-30T13:25:50.193Z,16.75
2023-12-30T13:28:21.194Z,16.78
2023-12-30T13:30:50.335Z,16.82
2023-12-30T13:33:22.949Z,16.83
2023-12-30T13:35:53.724Z,16.82
2023-12-30T13:38:25.551Z,16.84
2023-12-30T13:40:55.629Z,16.86
2023-12-30T13:43:28.621Z,16.86
2023-12-30T13:46:18.706Z,16.86
2023-12-30T13:49:27.411Z,16.86
2023-12-30T13:52:01.943Z,16.90
2023-12-30T13:54:31.866Z,16.99
2023-12-30T13:57:14.237Z,17.03
2023-12-30T13:59:47.065Z,17.11
2023-12-30T14:02:20.085Z,17.21
2023-12-30T14:04:58.832Z,17.17
2023-12-30T14:07:31.900Z,17.14
2023-12-30T14:10:05.909Z,17.20
2023-12-30T14:12:36.660Z,17.19
2023-12-30T14:15:11.746Z,17.20
2023-12-30T14:17:44.135Z,17.18
2023-12-30T14:20:15.810Z,17.16
2023-12-30T14:22:45.657Z,17.17
2023-12-30T14:25:15.341Z,17.15
2023-12-30T14:27:45.241Z,17.11
2023-12-30T14:30:15.361Z,17.13
2023-12-30T14:32:46.040Z,17.37
2023-12-30T14:35:17.223Z,18.18
2023-12-30T14:37:46.123Z,18.52
2023-12-30T14:40:15.445Z,19.52
2023-12-30T14:42:46.235Z,20.24
2023-12-30T14:45:20.065Z,20.92
2023-12-30T14:47:50.982Z,21.69
2023-12-30T14:50:21.449Z,22.24
2023-12-30T14:52:52.982Z,22.68
2023-12-30T14:55:23.769Z,23.06
2023-12-30T14:57:55.583Z,23.30
2023-12-30T15:00:25.771Z,23.39
2023-12-30T15:02:56.344Z,23.52
2023-12-30T15:05:25.187Z,23.67
2023-12-30T15:07:56.749Z,23.66
2023-12-30T15:10:26.877Z,23.58
2023-12-30T15:12:58.390Z,23.48
2023-12-30T15:15:27.230Z,23.25
2023-12-30T15:17:56.365Z,22.71
2023-12-30T15:20:27.532Z,21.74
2023-12-30T15:22:58.445Z,20.99
2023-12-30T15:25:28.162Z,20.47
2023-12-30T15:27:57.018Z,19.95
2023-12-30T15:30:25.722Z,19.44
2023-12-30T15:32:56.599Z,18.97
2023-12-30T15:35:26.398Z,18.56
2023-12-30T15:37:55.671Z,18.25
2023-12-30T15:40:25.121Z,17.96
2023-12-30T15:42:54.049Z,17.70
2023-12-30T15:45:23.063Z,17.47
2023-12-30T15:47:53.232Z,17.25
2023-12-30T15:50:22.118Z,16.98
2023-12-30T15:52:51.041Z,16.68
2023-12-30T15:55:20.915Z,16.41
2023-12-30T15:57:53.351Z,16.18
2023-12-30T16:00:23.104Z,15.98
2023-12-30T16:02:53.443Z,15.79
2023-12-30T16:05:25.710Z,15.64
2023-12-30T16:07:55.139Z,15.54
2023-12-30T16:10:27.833Z,15.41
2023-12-30T16:12:58.451Z,15.28
2023-12-30T16:15:29.729Z,15.18
2023-12-30T16:17:58.596Z,15.06
2023-12-30T16:20:28.031Z,14.96
2023-12-30T16:22:57.653Z,14.87
2023-12-30T16:25:27.586Z,14.73
2023-12-30T16:27:56.789Z,14.60
2023-12-30T16:30:25.643Z,14.49
2023-12-30T16:32:54.879Z,14.35
2023-12-30T16:35:24.954Z,14.23
2023-12-30T16:37:53.916Z,14.18
2023-12-30T16:40:23.213Z,14.12
2023-12-30T16:42:54.625Z,13.99
2023-12-30T16:45:23.540Z,13.86
2023-12-30T16:47:52.715Z,13.73
2023-12-30T16:50:21.518Z,13.63
2023-12-30T16:52:50.775Z,13.54
2023-12-30T16:55:19.982Z,13.46
2023-12-30T16:57:49.293Z,13.36
2023-12-30T17:00:18.623Z,13.24
2023-12-30T17:02:48.395Z,13.20
2023-12-30T17:05:18.397Z,13.12
2023-12-30T17:07:48.692Z,13.02
2023-12-30T17:10:18.783Z,12.89
2023-12-30T17:12:48.177Z,12.76
2023-12-30T17:15:17.933Z,12.65
2023-12-30T17:17:46.870Z,12.55
2023-12-30T17:20:17.989Z,12.50
2023-12-30T17:22:48.210Z,12.44
2023-12-30T17:25:17.433Z,12.36
2023-12-30T17:27:47.086Z,12.31
2023-12-30T17:30:16.516Z,12.26
2023-12-30T17:32:45.786Z,12.24
2023-12-30T17:35:16.139Z,12.19
2023-12-30T17:37:45.580Z,12.15
2023-12-30T17:40:19.467Z,12.10
2023-12-30T17:42:49.417Z,12.03
2023-12-30T17:45:19.154Z,11.99
2023-12-30T17:47:51.155Z,11.91
2023-12-30T17:50:21.582Z,11.84
2023-12-30T17:52:51.383Z,11.79
2023-12-30T17:55:20.312Z,11.73
2023-12-30T17:57:49.120Z,11.71
2023-12-30T18:00:18.387Z,11.66
2023-12-30T18:02:47.712Z,11.58
2023-12-30T18:05:16.748Z,11.53
2023-12-30T18:07:46.323Z,11.51
2023-12-30T18:10:15.774Z,11.50
2023-12-30T18:12:50.694Z,11.51
2023-12-30T18:15:20.579Z,11.52
2023-12-30T18:17:49.797Z,11.51
2023-12-30T18:20:19.488Z,11.52
2023-12-30T18:22:48.888Z,11.51
2023-12-30T18:25:18.016Z,11.49
2023-12-30T18:27:47.781Z,11.44
2023-12-30T18:30:17.233Z,11.35
2023-12-30T18:32:47.002Z,11.23
2023-12-30T18:35:15.945Z,11.11
2023-12-30T18:37:45.414Z,11.01
2023-12-30T18:40:18.546Z,10.97
2023-12-30T18:42:50.473Z,10.96
2023-12-30T18:45:22.442Z,10.97
2023-12-30T18:48:06.762Z,10.95
2023-12-30T18:50:35.681Z,10.90
2023-12-30T18:53:14.120Z,10.89
2023-12-30T18:55:55.386Z,10.88
2023-12-30T18:58:23.934Z,10.85
2023-12-30T19:00:57.601Z,10.83
2023-12-30T19:03:26.423Z,10.75
2023-12-30T19:05:59.434Z,10.54
2023-12-30T19:08:29.383Z,10.39
2023-12-30T19:10:58.515Z,10.33
2023-12-30T19:13:27.808Z,10.33
2023-12-30T19:15:56.900Z,10.36
2023-12-30T19:18:26.030Z,10.37
2023-12-30T19:20:57.412Z,10.39
2023-12-30T19:23:27.014Z,10.41
2023-12-30T19:25:56.106Z,10.51
2023-12-30T19:28:29.205Z,10.57
2023-12-30T19:31:00.172Z,10.62
2023-12-30T19:33:32.147Z,10.72
2023-12-30T19:36:04.435Z,10.81
2023-12-30T19:38:34.220Z,10.90
2023-12-30T19:41:03.425Z,10.99
2023-12-30T19:43:36.260Z,11.02
2023-12-30T19:46:09.254Z,11.02
2023-12-30T19:48:38.162Z,11.02
2023-12-30T19:51:07.959Z,11.02
2023-12-30T19:53:36.980Z,11.01
2023-12-30T19:56:09.570Z,11.04
2023-12-30T19:58:38.354Z,11.01
2023-12-30T20:01:07.430Z,11.08
2023-12-30T20:03:36.949Z,11.16
2023-12-30T20:06:08.128Z,11.17
2023-12-30T20:08:41.302Z,11.14
2023-12-30T20:11:14.791Z,11.15
2023-12-30T20:13:48.616Z,11.15
2023-12-30T20:16:18.283Z,11.15
2023-12-30T20:18:50.119Z,11.11
2023-12-30T20:21:20.132Z,10.99
2023-12-30T20:23:49.360Z,10.91
2023-12-30T20:26:18.254Z,10.90
2023-12-30T20:28:49.310Z,10.94
2023-12-30T20:31:20.599Z,10.98
2023-12-30T20:33:49.772Z,11.00
2023-12-30T20:36:23.908Z,11.01
2023-12-30T20:38:53.764Z,11.00
2023-12-30T20:41:22.476Z,11.00
2023-12-30T20:43:51.556Z,11.00
2023-12-30T20:46:21.138Z,11.05
2023-12-30T20:48:50.399Z,11.11
2023-12-30T20:51:19.977Z,11.17
2023-12-30T20:53:52.554Z,11.14
2023-12-30T20:56:21.469Z,11.06
2023-12-30T20:58:51.258Z,11.02
2023-12-30T21:01:21.046Z,10.96
2023-12-30T21:03:51.279Z,10.92
2023-12-30T21:06:20.819Z,10.95
2023-12-30T21:08:51.096Z,10.90
2023-12-30T21:11:21.214Z,10.84
2023-12-30T21:13:50.307Z,10.77
2023-12-30T21:16:22.119Z,10.73
2023-12-30T21:18:51.579Z,10.69
2023-12-30T21:21:20.871Z,10.64
2023-12-30T21:23:50.539Z,10.59
2023-12-30T21:26:22.808Z,10.57
2023-12-30T21:28:52.106Z,10.58
2023-12-30T21:31:20.965Z,10.62
2023-12-30T21:33:50.759Z,10.68
2023-12-30T21:36:20.700Z,10.77
2023-12-30T21:38:50.046Z,10.82
2023-12-30T21:41:25.230Z,10.79
2023-12-30T21:43:53.873Z,10.69
2023-12-30T21:46:24.903Z,10.63
2023-12-30T21:49:00.777Z,10.57
2023-12-30T21:51:29.852Z,10.55
2023-12-30T21:53:59.174Z,10.51
2023-12-30T21:56:28.179Z,10.45
2023-12-30T21:58:56.726Z,10.46
2023-12-30T22:01:25.986Z,10.49
2023-12-30T22:03:54.694Z,10.54
2023-12-30T22:06:23.391Z,10.56
2023-12-30T22:08:52.488Z,10.61
2023-12-30T22:11:21.662Z,10.65
2023-12-30T22:13:50.686Z,10.66
2023-12-30T22:16:20.106Z,10.69
2023-12-30T22:18:49.352Z,10.74
2023-12-30T22:21:19.520Z,10.83
2023-12-30T22:23:48.977Z,10.85
2023-12-30T22:26:19.216Z,10.86
2023-12-30T22:28:48.126Z,10.90
2023-12-30T22:31:17.461Z,10.92
2023-12-30T22:33:46.400Z,10.97
2023-12-30T22:36:15.528Z,10.99
2023-12-30T22:38:44.276Z,11.02
2023-12-30T22:41:13.353Z,11.05
2023-12-30T22:43:42.469Z,11.12
2023-12-30T22:46:11.632Z,11.18
2023-12-30T22:48:40.299Z,11.13
2023-12-30T22:51:09.393Z,11.20
2023-12-30T22:53:41.365Z,11.23
2023-12-30T22:56:11.393Z,11.15
2023-12-30T22:58:40.599Z,11.05
2023-12-30T23:01:09.527Z,11.02
2023-12-30T23:03:40.817Z,11.01
2023-12-30T23:06:10.428Z,10.98
2023-12-30T23:08:39.577Z,10.95
2023-12-30T23:11:09.045Z,10.95
2023-12-30T23:13:38.808Z,10.96
2023-12-30T23:16:09.027Z,10.99
2023-12-30T23:18:38.500Z,11.06
2023-12-30T23:21:08.358Z,11.09
2023-12-30T23:23:38.202Z,11.11
2023-12-30T23:26:09.560Z,11.15
2023-12-30T23:28:38.823Z,11.16
2023-12-30T23:31:07.834Z,11.19
2023-12-30T23:33:37.008Z,11.19
2023-12-30T23:36:06.202Z,11.19
2023-12-30T23:38:34.963Z,11.22
2023-12-30T23:41:04.062Z,11.25
2023-12-30T23:43:33.080Z,11.25
2023-12-30T23:46:02.084Z,11.25
2023-12-30T23:48:30.609Z,11.26
2023-12-30T23:50:59.101Z,11.30
2023-12-30T23:53:27.979Z,11.35
2023-12-30T23:55:56.858Z,11.37
2023-12-30T23:58:25.442Z,11.40
